Time;durP1;ratioP1;P1;durP2;ratioP2;P2;SDS_P1;SDS_P2;PMS_P1;PMS_P2;Temp;Humidity;BMP_temperature;BMP_pressure;BME280_temperature;BME280_humidity;BME280_pressure;Samples;Min_cycle;Max_cycle;Signal;HPM_P1;HPM_P2
2023/10/25 00:01:30;;;;;;;9.93;4.80;;;9.60;99.90;;;;;;5060171;28;20043;-71
2023/10/25 00:03:56;;;;;;;10.82;4.65;;;9.60;99.90;;;;;;5051601;28;20037;-71
2023/10/25 00:06:21;;;;;;;9.52;4.85;;;9.60;99.90;;;;;;5051539;28;20098;-71
2023/10/25 00:08:47;;;;;;;10.25;5.50;;;9.60;99.90;;;;;;5050191;28;20425;-71
2023/10/25 00:11:12;;;;;;;13.20;4.97;;;9.60;99.90;;;;;;5050865;28;20033;-71
2023/10/25 00:13:38;;;;;;;10.23;4.68;;;9.60;99.90;;;;;;5043230;28;20129;-71
2023/10/25 00:16:04;;;;;;;8.93;4.95;;;9.50;99.90;;;;;;5047553;28;20642;-71
2023/10/25 00:18:30;;;;;;;9.65;4.65;;;9.50;99.90;;;;;;5041485;28;20496;-71
2023/10/25 00:20:56;;;;;;;9.32;4.80;;;9.50;99.90;;;;;;5050559;28;20516;-70
2023/10/25 00:23:22;;;;;;;13.20;5.43;;;9.50;99.90;;;;;;5048770;28;20064;-70
2023/10/25 00:25:49;;;;;;;9.75;4.90;;;9.50;99.90;;;;;;5049818;28;20070;-71
2023/10/25 00:28:15;;;;;;;11.02;4.97;;;9.50;99.90;;;;;;5049274;28;20044;-70
2023/10/25 00:30:41;;;;;;;12.35;5.10;;;9.40;99.90;;;;;;5050300;28;20045;-70
2023/10/25 00:33:07;;;;;;;12.80;5.25;;;9.40;99.90;;;;;;5046308;28;20044;-70
2023/10/25 00:35:32;;;;;;;17.65;5.50;;;9.40;99.90;;;;;;5040626;28;20502;-70
2023/10/25 00:37:58;;;;;;;11.63;4.97;;;9.40;99.90;;;;;;5050581;28;20033;-69
2023/10/25 00:40:24;;;;;;;9.85;4.82;;;9.40;99.90;;;;;;5049832;28;20041;-69
2023/10/25 00:42:50;;;;;;;12.27;5.38;;;9.40;99.90;;;;;;5054641;28;20407;-69
2023/10/25 00:45:15;;;;;;;13.45;5.30;;;9.40;99.90;;;;;;5053138;28;20040;-69
2023/10/25 00:47:43;;;;;;;7.88;5.28;;;9.40;99.90;;;;;;5061559;28;20052;-69
2023/10/25 00:50:10;;;;;;;8.55;5.22;;;9.30;99.90;;;;;;5046692;28;20432;-69
2023/10/25 00:52:37;;;;;;;12.70;5.05;;;9.30;99.90;;;;;;5049873;28;20446;-70
2023/10/25 00:55:03;;;;;;;12.13;4.78;;;9.30;99.90;;;;;;5044003;28;20116;-69
2023/10/25 00:57:30;;;;;;;14.15;5.63;;;9.30;99.90;;;;;;5045843;28;20132;-69
2023/10/25 00:59:56;;;;;;;11.32;5.78;;;9.30;99.90;;;;;;5045261;28;20123;-69
2023/10/25 01:02:22;;;;;;;13.27;5.25;;;9.30;99.90;;;;;;5056774;28;20468;-69
2023/10/25 01:04:48;;;;;;;13.57;5.20;;;9.30;99.90;;;;;;5050756;28;20048;-69
2023/10/25 01:07:13;;;;;;;14.40;5.78;;;9.30;99.90;;;;;;5053046;28;20048;-69
2023/10/25 01:09:39;;;;;;;10.82;5.47;;;9.30;99.90;;;;;;5042803;28;20037;-69
2023/10/25 01:12:05;;;;;;;11.77;5.72;;;9.30;99.90;;;;;;5045611;28;20033;-69
2023/10/25 01:14:31;;;;;;;12.65;5.18;;;9.20;99.90;;;;;;5044296;28;20034;-69
2023/10/25 01:16:56;;;;;;;13.18;5.32;;;9.20;99.90;;;;;;5049156;28;20441;-69
2023/10/25 01:19:22;;;;;;;13.13;6.22;;;9.20;99.90;;;;;;5053773;28;20483;-70
2023/10/25 01:21:48;;;;;;;13.68;5.90;;;9.20;99.90;;;;;;5049654;28;20572;-69
2023/10/25 01:24:13;;;;;;;12.82;6.00;;;9.20;99.90;;;;;;5052705;28;20091;-69
2023/10/25 01:26:39;;;;;;;10.57;5.93;;;9.20;99.90;;;;;;5044172;28;20377;-69
2023/10/25 01:29:05;;;;;;;13.07;6.50;;;9.20;99.90;;;;;;5048836;28;20127;-69
2023/10/25 01:31:30;;;;;;;14.60;6.43;;;9.20;99.90;;;;;;5040846;28;20385;-69
2023/10/25 01:33:56;;;;;;;14.10;6.35;;;9.20;99.90;;;;;;5045786;28;20493;-69
2023/10/25 01:36:21;;;;;;;14.13;6.65;;;9.20;99.90;;;;;;5056141;28;20041;-69
2023/10/25 01:38:47;;;;;;;12.95;6.50;;;9.20;99.90;;;;;;5037671;28;20042;-69
2023/10/25 01:41:16;;;;;;;17.10;6.88;;;9.20;99.90;;;;;;5042602;28;20055;-69
2023/10/25 01:43:44;;;;;;;12.35;7.05;;;9.20;99.90;;;;;;5050091;28;20095;-69
2023/10/25 01:46:10;;;;;;;14.40;7.18;;;9.20;99.90;;;;;;5050105;28;20076;-69
2023/10/25 01:48:39;;;;;;;11.43;6.72;;;9.20;99.90;;;;;;5059787;28;20134;-69
2023/10/25 01:51:09;;;;;;;14.63;6.78;;;9.10;99.90;;;;;;5046338;28;20037;-69
2023/10/25 01:53:35;;;;;;;13.70;7.35;;;9.20;99.90;;;;;;5052481;28;20044;-69
2023/10/25 01:56:02;;;;;;;14.40;7.63;;;9.10;99.90;;;;;;5039052;28;20044;-69
2023/10/25 01:58:27;;;;;;;16.25;7.32;;;9.10;99.90;;;;;;5051577;28;20040;-69
2023/10/25 02:00:53;;;;;;;13.32;7.13;;;9.20;99.90;;;;;;5048430;28;20594;-69
2023/10/25 02:03:18;;;;;;;13.95;6.90;;;9.10;99.90;;;;;;5056701;28;20052;-69
2023/10/25 02:05:44;;;;;;;11.60;7.10;;;9.10;99.90;;;;;;5049618;28;20049;-69
2023/10/25 02:08:10;;;;;;;15.65;7.55;;;9.10;99.90;;;;;;5049287;28;20110;-70
2023/10/25 02:10:35;;;;;;;12.93;6.97;;;9.10;99.90;;;;;;5048125;28;20049;-69
2023/10/25 02:13:01;;;;;;;16.70;7.45;;;9.10;99.90;;;;;;5057030;28;20049;-69
2023/10/25 02:15:27;;;;;;;14.80;7.97;;;9.10;99.90;;;;;;5055952;28;20048;-70
2023/10/25 02:17:53;;;;;;;14.90;7.22;;;9.10;99.90;;;;;;5055602;28;20033;-69
2023/10/25 02:20:19;;;;;;;14.23;7.18;;;9.00;99.90;;;;;;5056925;28;20530;-69
2023/10/25 02:22:44;;;;;;;13.13;7.13;;;9.00;99.90;;;;;;5045140;28;20068;-69
2023/10/25 02:25:10;;;;;;;12.90;7.22;;;9.00;99.90;;;;;;5064106;28;20451;-69
2023/10/25 02:27:36;;;;;;;14.02;6.70;;;9.00;99.90;;;;;;5065389;28;20084;-69
2023/10/25 02:30:02;;;;;;;11.98;6.82;;;9.00;99.90;;;;;;5058597;28;20038;-69
2023/10/25 02:32:28;;;;;;;15.35;7.38;;;9.00;99.90;;;;;;5059283;28;20075;-69
2023/10/25 02:34:53;;;;;;;12.93;6.88;;;9.00;99.90;;;;;;5053585;28;20061;-69
2023/10/25 02:37:19;;;;;;;13.35;6.78;;;9.00;99.90;;;;;;5064990;28;20037;-69
2023/10/25 02:39:45;;;;;;;13.00;6.38;;;9.00;99.90;;;;;;5052383;28;20044;-69
2023/10/25 02:42:12;;;;;;;13.02;6.57;;;9.00;99.90;;;;;;5061110;28;20380;-69
2023/10/25 02:44:38;;;;;;;12.52;6.10;;;9.00;99.90;;;;;;5064945;28;20051;-69
2023/10/25 02:47:05;;;;;;;14.70;6.28;;;9.00;99.90;;;;;;5054990;28;20041;-69
2023/10/25 02:49:31;;;;;;;12.75;6.38;;;9.00;99.90;;;;;;5062210;28;20083;-69
2023/10/25 02:51:57;;;;;;;13.70;6.55;;;9.00;99.90;;;;;;5050631;28;20503;-69
2023/10/25 02:54:22;;;;;;;13.10;6.25;;;8.90;99.90;;;;;;5058291;28;20036;-69
2023/10/25 02:56:48;;;;;;;13.02;6.20;;;8.90;99.90;;;;;;5057772;28;20074;-69
2023/10/25 02:59:13;;;;;;;16.20;6.18;;;8.90;99.90;;;;;;5058858;28;20507;-69
2023/10/25 03:01:39;;;;;;;13.93;5.88;;;8.90;99.90;;;;;;5054597;28;20052;-69
2023/10/25 03:04:05;;;;;;;14.73;6.10;;;8.90;99.90;;;;;;5052265;28;20036;-69
2023/10/25 03:06:30;;;;;;;15.23;6.68;;;8.80;99.90;;;;;;5059009;28;20380;-69
2023/10/25 03:08:56;;;;;;;11.38;6.20;;;8.80;99.90;;;;;;5044310;28;20095;-69
2023/10/25 03:11:22;;;;;;;10.80;6.38;;;8.80;99.90;;;;;;5056386;28;20024;-69
2023/10/25 03:13:47;;;;;;;11.57;6.22;;;8.80;99.90;;;;;;5057571;28;20539;-69
2023/10/25 03:16:13;;;;;;;15.23;7.53;;;8.80;99.90;;;;;;5050554;28;20041;-69
2023/10/25 03:18:39;;;;;;;10.73;6.30;;;8.80;99.90;;;;;;5053242;28;20227;-69
2023/10/25 03:21:04;;;;;;;16.95;7.28;;;8.80;99.90;;;;;;5062999;28;20490;-69
2023/10/25 03:23:31;;;;;;;15.38;6.60;;;8.80;99.90;;;;;;5054112;28;20083;-70
2023/10/25 03:26:07;;;;;;;12.45;6.97;;;8.80;99.90;;;;;;5058988;28;20033;-69
2023/10/25 03:28:33;;;;;;;13.00;7.05;;;8.80;99.90;;;;;;5055282;28;20040;-69
2023/10/25 03:31:06;;;;;;;13.52;6.82;;;8.80;99.90;;;;;;5054122;28;20511;-69
2023/10/25 03:33:32;;;;;;;13.30;7.00;;;8.80;99.90;;;;;;5059666;28;20029;-69
2023/10/25 03:35:57;;;;;;;16.15;7.40;;;8.70;99.90;;;;;;5051020;28;20043;-69
2023/10/25 03:38:23;;;;;;;14.80;7.57;;;8.70;99.90;;;;;;5045533;28;20037;-69
2023/10/25 03:40:58;;;;;;;15.00;7.07;;;8.70;99.90;;;;;;5046310;28;20053;-69
2023/10/25 03:43:24;;;;;;;14.80;6.90;;;8.70;99.90;;;;;;5045562;28;20120;-69
2023/10/25 03:45:50;;;;;;;14.98;7.07;;;8.70;99.90;;;;;;5053955;28;20111;-69
2023/10/25 03:48:15;;;;;;;12.43;7.32;;;8.70;99.90;;;;;;5052533;28;20052;-69
2023/10/25 03:50:41;;;;;;;11.77;7.05;;;8.70;99.90;;;;;;5049271;28;20068;-69
2023/10/25 03:53:06;;;;;;;13.75;6.97;;;8.70;99.90;;;;;;5048590;28;20431;-69
2023/10/25 03:55:32;;;;;;;12.55;6.90;;;8.60;99.90;;;;;;5049735;28;20033;-70
2023/10/25 03:57:57;;;;;;;15.45;7.30;;;8.60;99.90;;;;;;5053440;28;20123;-70
2023/10/25 04:00:23;;;;;;;15.25;7.60;;;8.60;99.90;;;;;;5052023;28;20044;-70
2023/10/25 04:02:49;;;;;;;9.27;6.50;;;8.60;99.90;;;;;;5055041;28;20051;-69
2023/10/25 04:05:14;;;;;;;13.68;7.10;;;8.60;99.90;;;;;;5053257;28;20458;-70
2023/10/25 04:07:40;;;;;;;12.48;7.00;;;8.60;99.90;;;;;;5045681;28;20515;-70
2023/10/25 04:10:06;;;;;;;14.20;7.28;;;8.60;99.90;;;;;;5047379;28;20503;-70
2023/10/25 04:12:31;;;;;;;12.63;7.10;;;8.60;99.90;;;;;;5045920;28;20079;-70
2023/10/25 04:14:57;;;;;;;14.32;7.63;;;8.60;99.90;;;;;;5047484;28;20520;-69
2023/10/25 04:17:23;;;;;;;18.08;7.60;;;8.60;99.90;;;;;;5047439;28;20024;-69
2023/10/25 04:19:48;;;;;;;13.40;7.32;;;8.60;99.90;;;;;;5052238;28;20491;-70
2023/10/25 04:22:14;;;;;;;16.92;7.35;;;8.60;99.90;;;;;;5043944;28;20063;-70
2023/10/25 04:24:40;;;;;;;12.02;7.07;;;8.60;99.90;;;;;;5051941;28;20484;-70
2023/10/25 04:27:05;;;;;;;10.77;6.72;;;8.50;99.90;;;;;;5059080;28;20556;-70
2023/10/25 04:29:31;;;;;;;13.27;6.75;;;8.50;99.90;;;;;;5055381;28;20052;-71
2023/10/25 04:31:57;;;;;;;13.93;6.82;;;8.60;99.90;;;;;;5045346;28;20064;-71
2023/10/25 04:34:22;;;;;;;13.85;6.53;;;8.50;99.90;;;;;;5046610;28;20383;-71
2023/10/25 04:36:48;;;;;;;11.45;7.10;;;8.50;99.90;;;;;;5049171;28;20044;-71
2023/10/25 04:39:14;;;;;;;13.63;6.88;;;8.50;99.90;;;;;;5047376;28;20125;-71
2023/10/25 04:41:40;;;;;;;10.85;7.00;;;8.50;99.90;;;;;;5042672;28;20487;-71
2023/10/25 04:44:06;;;;;;;13.38;7.03;;;8.50;99.90;;;;;;5045050;28;20045;-71
2023/10/25 04:46:31;;;;;;;13.95;7.47;;;8.50;99.90;;;;;;5050218;28;20060;-71
2023/10/25 04:48:57;;;;;;;12.38;6.43;;;8.50;99.90;;;;;;5041475;28;20073;-71
2023/10/25 04:51:23;;;;;;;14.60;7.10;;;8.50;99.90;;;;;;5045083;28;20053;-71
2023/10/25 04:53:48;;;;;;;14.35;6.28;;;8.50;99.90;;;;;;5037478;28;20045;-71
2023/10/25 04:56:14;;;;;;;12.85;6.50;;;8.50;99.90;;;;;;5042082;28;20034;-71
2023/10/25 04:58:40;;;;;;;14.73;6.32;;;8.40;99.90;;;;;;5039943;28;20029;-71
2023/10/25 05:01:13;;;;;;;12.27;6.85;;;8.40;99.90;;;;;;5042110;28;20037;-71
2023/10/25 05:03:39;;;;;;;14.05;6.57;;;8.40;99.90;;;;;;5055262;28;20592;-71
2023/10/25 05:06:07;;;;;;;13.60;6.57;;;8.40;99.90;;;;;;5057509;28;20040;-70
2023/10/25 05:08:35;;;;;;;12.95;6.57;;;8.40;99.90;;;;;;5043582;28;20114;-70
2023/10/25 05:11:04;;;;;;;13.35;6.50;;;8.40;99.90;;;;;;5037809;28;20075;-70
2023/10/25 05:13:31;;;;;;;13.45;6.70;;;8.40;99.90;;;;;;5049240;28;20029;-70
2023/10/25 05:15:57;;;;;;;16.55;6.40;;;8.40;99.90;;;;;;5046203;28;20083;-70
2023/10/25 05:18:23;;;;;;;18.00;6.28;;;8.40;99.90;;;;;;5045330;28;20048;-70
2023/10/25 05:20:58;;;;;;;9.93;6.07;;;8.40;99.90;;;;;;5047782;28;20037;-70
2023/10/25 05:23:28;;;;;;;10.52;5.70;;;8.40;99.90;;;;;;5048411;28;20087;-70
2023/10/25 05:25:54;;;;;;;9.85;5.88;;;8.40;99.90;;;;;;5052888;28;20049;-70
2023/10/25 05:28:20;;;;;;;12.48;6.55;;;8.40;99.90;;;;;;5052384;28;20118;-70
2023/10/25 05:30:49;;;;;;;13.00;6.00;;;8.40;99.90;;;;;;5059378;28;20047;-70
2023/10/25 05:33:17;;;;;;;11.32;6.30;;;8.40;99.90;;;;;;5035771;28;20043;-70
2023/10/25 05:35:43;;;;;;;15.63;6.35;;;8.40;99.90;;;;;;5049844;28;20449;-70
2023/10/25 05:38:09;;;;;;;12.10;6.40;;;8.40;99.90;;;;;;5049215;28;20045;-70
2023/10/25 05:40:35;;;;;;;14.20;6.43;;;8.40;99.90;;;;;;5048371;28;20048;-70
2023/10/25 05:43:03;;;;;;;13.30;6.22;;;8.40;99.90;;;;;;5044977;28;20495;-70
2023/10/25 05:45:29;;;;;;;11.15;6.28;;;8.30;99.90;;;;;;5041537;28;20045;-70
2023/10/25 05:47:55;;;;;;;13.48;6.45;;;8.30;99.90;;;;;;5045313;28;20499;-70
2023/10/25 05:50:21;;;;;;;10.75;6.15;;;8.30;99.90;;;;;;5042631;28;20041;-70
2023/10/25 05:52:47;;;;;;;13.45;6.13;;;8.30;99.90;;;;;;5046222;28;20037;-70
2023/10/25 05:55:16;;;;;;;13.18;6.70;;;8.40;99.90;;;;;;5042697;28;20637;-70
2023/10/25 05:57:42;;;;;;;15.60;6.53;;;8.30;99.90;;;;;;5036968;28;20045;-70
2023/10/25 06:00:08;;;;;;;15.10;6.07;;;8.30;99.90;;;;;;5038228;28;20036;-70
2023/10/25 06:02:34;;;;;;;13.25;6.95;;;8.30;99.90;;;;;;5033380;28;20102;-70
2023/10/25 06:05:01;;;;;;;16.33;6.63;;;8.30;99.90;;;;;;5041828;28;20052;-70
2023/10/25 06:07:27;;;;;;;14.82;6.68;;;8.30;99.90;;;;;;5044663;28;20103;-70
2023/10/25 06:09:54;;;;;;;17.00;6.90;;;8.30;99.90;;;;;;5052821;28;20128;-70
2023/10/25 06:12:22;;;;;;;13.10;6.88;;;8.30;99.90;;;;;;5052137;28;20033;-70
2023/10/25 06:14:48;;;;;;;14.48;6.95;;;8.30;99.90;;;;;;5046661;28;20044;-70
2023/10/25 06:17:14;;;;;;;15.40;6.75;;;8.40;99.90;;;;;;5050571;28;20420;-70
2023/10/25 06:19:39;;;;;;;11.90;6.75;;;8.40;99.90;;;;;;5050662;28;20040;-70
2023/10/25 06:22:05;;;;;;;15.85;6.55;;;8.30;99.90;;;;;;5047026;28;20049;-70
2023/10/25 06:24:30;;;;;;;14.65;6.30;;;8.40;99.90;;;;;;5043841;28;20091;-70
2023/10/25 06:26:56;;;;;;;10.57;6.18;;;8.40;99.90;;;;;;5047854;28;20041;-70
2023/10/25 06:29:21;;;;;;;15.10;6.00;;;8.30;99.90;;;;;;5060435;28;20127;-70
2023/10/25 06:31:51;;;;;;;13.60;6.00;;;8.30;99.90;;;;;;5056567;28;20500;-70
2023/10/25 06:34:20;;;;;;;11.82;6.55;;;8.40;99.90;;;;;;5047246;28;20377;-70
2023/10/25 06:36:47;;;;;;;12.32;6.35;;;8.30;99.90;;;;;;5047374;28;20563;-70
2023/10/25 06:39:13;;;;;;;13.15;6.30;;;8.30;99.90;;;;;;5049615;28;20063;-70
2023/10/25 06:41:38;;;;;;;13.98;5.90;;;8.30;99.90;;;;;;5048074;28;20266;-70
2023/10/25 06:44:05;;;;;;;12.25;6.53;;;8.30;99.90;;;;;;5043417;28;20040;-70
2023/10/25 06:46:31;;;;;;;14.80;6.80;;;8.30;99.90;;;;;;5048588;28;20115;-70
2023/10/25 06:48:58;;;;;;;14.98;6.78;;;8.30;99.90;;;;;;5044136;28;20037;-70
2023/10/25 06:51:27;;;;;;;10.80;6.53;;;8.30;99.90;;;;;;5044304;28;20071;-70
2023/10/25 06:53:53;;;;;;;17.42;6.85;;;8.30;99.90;;;;;;5050300;28;20523;-70
2023/10/25 06:56:20;;;;;;;13.15;7.40;;;8.30;99.90;;;;;;5041318;28;20086;-70
2023/10/25 06:58:46;;;;;;;13.95;6.93;;;8.40;99.90;;;;;;5044436;28;20033;-70
2023/10/25 07:01:13;;;;;;;12.07;7.18;;;8.40;99.90;;;;;;5050514;28;20434;-70
2023/10/25 07:03:47;;;;;;;13.13;7.07;;;8.40;99.90;;;;;;5050309;28;20041;-70
2023/10/25 07:06:15;;;;;;;11.68;6.97;;;8.40;99.90;;;;;;5044640;28;20033;-70
2023/10/25 07:08:41;;;;;;;19.13;7.30;;;8.40;99.90;;;;;;5047315;28;20037;-70
2023/10/25 07:11:07;;;;;;;15.23;6.97;;;8.40;99.90;;;;;;5042261;28;20376;-70
2023/10/25 07:13:33;;;;;;;15.60;7.43;;;8.50;99.90;;;;;;5043542;28;20400;-70
2023/10/25 07:15:59;;;;;;;15.20;6.78;;;8.50;99.90;;;;;;5040554;28;20040;-70
2023/10/25 07:18:25;;;;;;;14.52;7.00;;;8.50;99.90;;;;;;5043825;28;20044;-70
2023/10/25 07:20:51;;;;;;;14.32;6.90;;;8.50;99.90;;;;;;5038162;28;20496;-70
2023/10/25 07:23:17;;;;;;;13.10;7.47;;;8.50;99.90;;;;;;5051216;28;20029;-70
2023/10/25 07:25:45;;;;;;;12.77;7.20;;;8.60;99.90;;;;;;5047285;28;20037;-70
2023/10/25 07:28:11;;;;;;;11.48;6.97;;;8.60;99.90;;;;;;5045517;28;20037;-70
2023/10/25 07:30:37;;;;;;;16.85;7.05;;;8.60;99.90;;;;;;5044739;28;20038;-70
2023/10/25 07:33:03;;;;;;;11.07;6.50;;;8.70;99.90;;;;;;5049047;28;20496;-70
2023/10/25 07:35:28;;;;;;;13.40;6.90;;;8.70;99.90;;;;;;5051511;28;20033;-70
2023/10/25 07:37:54;;;;;;;10.55;6.78;;;8.70;99.90;;;;;;5043173;28;20514;-70
2023/10/25 07:40:20;;;;;;;13.40;7.03;;;8.80;99.90;;;;;;5046090;28;20051;-70
2023/10/25 07:42:46;;;;;;;16.52;7.13;;;8.80;99.90;;;;;;5045909;28;20447;-70
2023/10/25 07:45:12;;;;;;;10.55;6.88;;;8.80;99.90;;;;;;5042040;28;20052;-70
2023/10/25 07:47:38;;;;;;;14.13;6.90;;;8.80;99.90;;;;;;5036798;28;20049;-70
2023/10/25 07:50:05;;;;;;;10.95;6.93;;;8.80;99.90;;;;;;5040846;28;20419;-70
2023/10/25 07:52:33;;;;;;;16.30;7.53;;;8.90;99.90;;;;;;5045844;28;20029;-70
2023/10/25 07:54:59;;;;;;;17.38;7.72;;;8.90;99.90;;;;;;5042665;28;20049;-70
2023/10/25 07:57:26;;;;;;;15.27;7.28;;;8.90;99.90;;;;;;5039138;28;20496;-70
2023/10/25 07:59:51;;;;;;;13.20;7.18;;;9.00;99.90;;;;;;5039327;28;20480;-70
2023/10/25 08:02:17;;;;;;;16.65;6.57;;;9.10;99.90;;;;;;5048828;28;20091;-70
2023/10/25 08:04:43;;;;;;;14.07;7.40;;;9.10;99.90;;;;;;5045544;28;20511;-70
2023/10/25 08:07:10;;;;;;;13.75;7.43;;;9.10;99.90;;;;;;5039922;28;20049;-70
2023/10/25 08:09:36;;;;;;;16.15;7.22;;;9.10;99.90;;;;;;5048011;28;20060;-70
2023/10/25 08:12:02;;;;;;;13.20;7.38;;;9.10;99.90;;;;;;5060388;28;20474;-70
2023/10/25 08:14:27;;;;;;;14.82;6.68;;;9.20;99.90;;;;;;5046616;28;20065;-70
2023/10/25 08:16:53;;;;;;;11.27;7.22;;;9.20;99.90;;;;;;5039658;28;20072;-70
2023/10/25 08:19:19;;;;;;;14.82;7.43;;;9.30;99.90;;;;;;5036439;28;20041;-70
2023/10/25 08:21:44;;;;;;;17.02;7.43;;;9.30;99.90;;;;;;5041618;28;20061;-70
2023/10/25 08:24:10;;;;;;;13.23;7.32;;;9.30;99.90;;;;;;5042439;28;20052;-70
2023/10/25 08:26:39;;;;;;;13.55;7.03;;;9.30;99.90;;;;;;5034974;28;20381;-70
2023/10/25 08:29:06;;;;;;;14.43;7.45;;;9.30;99.90;;;;;;5053486;28;20049;-70
2023/10/25 08:31:32;;;;;;;14.07;7.75;;;9.40;99.90;;;;;;5044917;28;20550;-70
2023/10/25 08:33:59;;;;;;;16.33;8.10;;;9.40;99.90;;;;;;5037331;28;20444;-71
2023/10/25 08:36:24;;;;;;;12.88;7.10;;;9.40;99.90;;;;;;5045299;28;20045;-71
2023/10/25 08:38:50;;;;;;;13.40;7.18;;;9.50;99.90;;;;;;5037790;28;20102;-71
2023/10/25 08:41:19;;;;;;;21.13;7.80;;;9.60;99.90;;;;;;5048430;28;20025;-70
2023/10/25 08:43:45;;;;;;;18.40;8.02;;;9.60;99.90;;;;;;5043209;28;20056;-70
2023/10/25 08:46:13;;;;;;;13.57;7.45;;;9.60;99.90;;;;;;5058104;28;20029;-70
2023/10/25 08:48:38;;;;;;;12.18;7.10;;;9.70;99.90;;;;;;5038850;28;20041;-71
2023/10/25 08:51:05;;;;;;;15.35;7.30;;;9.70;99.90;;;;;;5047389;28;20040;-70
2023/10/25 08:53:31;;;;;;;14.50;7.78;;;9.80;99.90;;;;;;5043332;28;20543;-71
2023/10/25 08:55:58;;;;;;;16.70;7.50;;;9.90;99.90;;;;;;5041361;28;20039;-70
2023/10/25 08:58:25;;;;;;;14.60;7.70;;;9.90;99.90;;;;;;5043600;28;20029;-71
2023/10/25 09:00:52;;;;;;;20.17;8.18;;;10.00;99.90;;;;;;5037053;28;20041;-71
2023/10/25 09:03:32;;;;;;;13.15;8.40;;;10.00;99.90;;;;;;5049355;28;20040;-70
2023/10/25 09:06:04;;;;;;;18.48;8.73;;;10.10;99.90;;;;;;5039906;28;20133;-70
2023/10/25 09:08:31;;;;;;;15.07;8.00;;;10.10;99.90;;;;;;5048208;28;20040;-71
2023/10/25 09:11:00;;;;;;;15.68;8.02;;;10.20;99.90;;;;;;5053650;28;20052;-70
2023/10/25 09:13:26;;;;;;;16.63;8.20;;;10.20;99.90;;;;;;5050243;28;20029;-70
2023/10/25 09:15:51;;;;;;;13.77;7.80;;;10.30;99.90;;;;;;5049821;28;20036;-70
2023/10/25 09:18:17;;;;;;;14.32;8.02;;;10.40;99.90;;;;;;5038257;28;20055;-70
2023/10/25 09:20:49;;;;;;;14.40;7.25;;;10.40;99.90;;;;;;5047456;28;20384;-70
2023/10/25 09:23:15;;;;;;;17.85;8.05;;;10.50;99.90;;;;;;5047538;28;20037;-70
2023/10/25 09:25:40;;;;;;;12.88;7.57;;;10.50;99.90;;;;;;5041097;28;20551;-70
2023/10/25 09:28:22;;;;;;;13.32;7.25;;;10.60;99.90;;;;;;5052015;28;20036;-70
2023/10/25 09:30:48;;;;;;;13.95;7.07;;;10.60;99.90;;;;;;5045192;28;20404;-70
2023/10/25 09:33:14;;;;;;;16.00;6.85;;;10.70;99.90;;;;;;5050526;28;20041;-70
2023/10/25 09:35:41;;;;;;;12.13;6.20;;;10.70;99.90;;;;;;5046428;28;20029;-70
2023/10/25 09:38:07;;;;;;;13.70;5.93;;;10.80;99.90;;;;;;5047042;28;20488;-70
2023/10/25 09:40:32;;;;;;;12.75;6.50;;;10.80;99.90;;;;;;5047926;28;20132;-70
2023/10/25 09:43:03;;;;;;;11.40;7.18;;;10.80;99.90;;;;;;5045864;28;20620;-70
2023/10/25 09:45:30;;;;;;;10.52;6.68;;;10.90;99.90;;;;;;5046823;28;20044;-70
2023/10/25 09:48:03;;;;;;;11.57;7.28;;;10.90;99.90;;;;;;5049407;28;20037;-70
2023/10/25 09:50:41;;;;;;;12.82;6.70;;;10.90;99.90;;;;;;5048097;28;20673;-70
2023/10/25 09:53:28;;;;;;;12.55;6.80;;;11.00;99.90;;;;;;5049682;28;20404;-69
2023/10/25 09:56:00;;;;;;;13.13;7.18;;;11.00;99.90;;;;;;5043383;28;20128;-69
2023/10/25 09:58:28;;;;;;;12.38;6.55;;;11.00;99.90;;;;;;5036777;28;20045;-70
2023/10/25 10:00:55;;;;;;;14.68;7.00;;;11.00;99.90;;;;;;5037924;28;20053;-70
2023/10/25 10:03:38;;;;;;;12.90;6.72;;;11.00;99.90;;;;;;5045082;28;20043;-70
2023/10/25 10:06:36;;;;;;;13.05;6.95;;;11.00;99.90;;;;;;5035074;28;20073;-70
2023/10/25 10:09:30;;;;;;;12.35;6.97;;;11.00;99.90;;;;;;5047985;28;20045;-70
2023/10/25 10:12:07;;;;;;;15.45;6.70;;;11.00;99.90;;;;;;5027533;28;20041;-70
2023/10/25 10:14:37;;;;;;;13.25;6.93;;;11.10;99.90;;;;;;5036814;28;20056;-70
2023/10/25 10:17:03;;;;;;;15.02;6.90;;;11.10;99.90;;;;;;5041421;28;20036;-70
2023/10/25 10:19:31;;;;;;;12.85;6.97;;;11.10;99.90;;;;;;5039011;28;20097;-70
2023/10/25 10:22:13;;;;;;;11.15;7.07;;;11.10;99.90;;;;;;5046282;28;20069;-70
2023/10/25 10:24:42;;;;;;;;;;;11.20;99.90;;;;;;5038012;28;20118;-70
2023/10/25 10:27:16;;;;;;;13.05;6.32;;;11.10;99.90;;;;;;5045081;28;20280;-70
2023/10/25 10:29:44;;;;;;;13.75;7.63;;;11.20;99.90;;;;;;5047308;28;20041;-70
2023/10/25 10:32:10;;;;;;;12.55;6.93;;;11.20;99.90;;;;;;5049076;28;20044;-70
2023/10/25 10:34:43;;;;;;;12.45;6.80;;;11.20;99.90;;;;;;5047360;28;20128;-70
2023/10/25 10:37:10;;;;;;;11.27;7.05;;;11.20;99.90;;;;;;5050633;28;20223;-70
2023/10/25 10:39:59;;;;;;;14.27;6.28;;;11.30;99.90;;;;;;5032849;28;20484;-70
2023/10/25 10:42:30;;;;;;;11.23;6.32;;;11.30;99.90;;;;;;5042219;28;20053;-70
2023/10/25 10:45:04;;;;;;;11.50;6.47;;;11.20;99.90;;;;;;5059826;28;20491;-69
2023/10/25 10:47:54;;;;;;;11.68;6.35;;;11.30;99.90;;;;;;5041447;28;20275;-70
2023/10/25 10:50:21;;;;;;;14.38;6.53;;;11.20;99.90;;;;;;5042661;28;20035;-70
2023/10/25 10:52:50;;;;;;;13.60;6.35;;;11.30;99.90;;;;;;5048182;28;20082;-70
2023/10/25 10:55:17;;;;;;;20.05;6.30;;;11.30;99.90;;;;;;5051571;28;20091;-70
2023/10/25 10:57:44;;;;;;;10.75;6.97;;;11.30;99.90;;;;;;5047930;28;20400;-70
2023/10/25 11:00:13;;;;;;;11.68;7.00;;;11.30;99.90;;;;;;5042999;28;20813;-70
2023/10/25 11:02:44;;;;;;;11.18;6.10;;;11.30;99.90;;;;;;5054398;28;20049;-70
2023/10/25 11:05:09;;;;;;;11.00;7.13;;;11.30;99.90;;;;;;5047524;28;20085;-71
2023/10/25 11:07:35;;;;;;;13.25;7.00;;;11.30;99.90;;;;;;5046688;28;20091;-71
2023/10/25 11:10:01;;;;;;;12.77;6.90;;;11.20;99.90;;;;;;5045121;28;20048;-71
2023/10/25 11:12:26;;;;;;;11.52;6.68;;;11.20;99.90;;;;;;5045990;28;20199;-69
2023/10/25 11:14:52;;;;;;;12.45;7.07;;;11.20;99.90;;;;;;5058914;28;20041;-70
2023/10/25 11:17:19;;;;;;;11.98;7.60;;;11.20;99.90;;;;;;5047164;28;20040;-70
2023/10/25 11:19:46;;;;;;;12.95;6.97;;;11.20;99.90;;;;;;5044164;28;20044;-69
2023/10/25 11:22:12;;;;;;;13.57;7.32;;;11.20;99.90;;;;;;5055287;28;20067;-69
2023/10/25 11:24:38;;;;;;;11.57;7.13;;;11.20;99.90;;;;;;5045373;28;20051;-70
2023/10/25 11:27:05;;;;;;;14.13;7.03;;;11.10;99.90;;;;;;5047083;28;20395;-70
2023/10/25 11:29:39;;;;;;;13.43;8.15;;;11.10;99.90;;;;;;5063976;28;20045;-69
2023/10/25 11:32:06;;;;;;;12.52;7.93;;;11.10;99.90;;;;;;5052070;28;20032;-70
2023/10/25 11:34:33;;;;;;;14.82;7.50;;;11.10;99.90;;;;;;5035023;28;20039;-70
2023/10/25 11:37:02;;;;;;;14.07;7.13;;;11.10;99.90;;;;;;5047796;28;20686;-70
2023/10/25 11:39:32;;;;;;;13.63;7.50;;;11.10;99.90;;;;;;5056740;28;20111;-70
2023/10/25 11:42:00;;;;;;;14.20;7.95;;;11.10;99.90;;;;;;5047303;28;20052;-70
2023/10/25 11:44:27;;;;;;;12.88;7.40;;;11.10;99.90;;;;;;5048139;28;20044;-70
2023/10/25 11:46:58;;;;;;;15.48;8.02;;;11.00;99.90;;;;;;5063167;28;20049;-70
2023/10/25 11:49:24;;;;;;;15.17;7.97;;;11.00;99.90;;;;;;5046187;28;20489;-70
2023/10/25 11:51:52;;;;;;;18.45;7.80;;;11.00;99.90;;;;;;5047463;28;20082;-70
2023/10/25 11:54:18;;;;;;;14.05;7.60;;;11.00;99.90;;;;;;5053074;28;20062;-71
2023/10/25 11:56:44;;;;;;;11.60;6.97;;;10.90;99.90;;;;;;5056091;28;20049;-71
2023/10/25 11:59:09;;;;;;;10.80;6.70;;;11.00;99.90;;;;;;5063994;28;20029;-71
2023/10/25 12:01:35;;;;;;;14.50;6.80;;;10.90;99.90;;;;;;5059384;28;20450;-71
2023/10/25 12:04:00;;;;;;;12.00;7.57;;;10.90;99.90;;;;;;5050990;28;20484;-70
2023/10/25 12:06:26;;;;;;;17.42;7.63;;;10.90;99.90;;;;;;5051289;28;20041;-71
2023/10/25 12:08:52;;;;;;;13.50;7.15;;;10.90;99.90;;;;;;5051671;28;20456;-71
2023/10/25 12:11:17;;;;;;;14.85;7.35;;;10.90;99.90;;;;;;5058739;28;20028;-71
2023/10/25 12:13:43;;;;;;;11.90;6.60;;;10.90;99.90;;;;;;5057907;28;20100;-71
2023/10/25 12:16:09;;;;;;;11.38;6.78;;;10.90;99.90;;;;;;5063679;28;20048;-71
2023/10/25 12:18:36;;;;;;;14.35;7.00;;;10.90;99.90;;;;;;5046601;28;20066;-70
2023/10/25 12:21:05;;;;;;;11.55;6.95;;;11.00;99.90;;;;;;5043190;28;20112;-70
2023/10/25 12:23:32;;;;;;;10.55;6.68;;;10.90;99.90;;;;;;5047635;28;20041;-70
2023/10/25 12:25:59;;;;;;;14.50;6.70;;;11.00;99.90;;;;;;5050053;28;20045;-70
2023/10/25 12:28:25;;;;;;;13.82;7.03;;;11.00;99.90;;;;;;5049974;28;20112;-71
2023/10/25 12:30:51;;;;;;;11.85;6.97;;;11.00;99.90;;;;;;5051734;28;20041;-70
2023/10/25 12:33:16;;;;;;;11.63;7.20;;;11.00;99.90;;;;;;5060356;28;20487;-70
2023/10/25 12:35:42;;;;;;;12.25;6.72;;;11.00;99.90;;;;;;5055012;28;20090;-70
2023/10/25 12:38:08;;;;;;;14.82;6.95;;;11.00;99.90;;;;;;5053912;28;20044;-70
2023/10/25 12:40:34;;;;;;;13.60;7.25;;;11.00;99.90;;;;;;5060763;28;20047;-70
2023/10/25 12:43:00;;;;;;;14.02;6.90;;;11.00;99.90;;;;;;5066004;28;20047;-71
2023/10/25 12:45:25;;;;;;;12.48;6.97;;;11.00;99.90;;;;;;5054871;28;20046;-69